sensor_id;sensor_type;location;lat;lon;timestamp;pressure;altitude;pressure_sealevel;temperature;humidity
85752;BME280;76192;39.766;2.716;2024-02-14T00:00:28;102180.46;;;10.38;67.61
85752;BME280;76192;39.766;2.716;2024-02-14T00:02:54;102181.36;;;10.41;67.77
85752;BME280;76192;39.766;2.716;2024-02-14T00:05:19;102173.41;;;10.45;67.27
85752;BME280;76192;39.766;2.716;2024-02-14T00:07:45;102174.73;;;10.49;67.42
85752;BME280;76192;39.766;2.716;2024-02-14T00:10:11;102175.09;;;10.52;67.19
85752;BME280;76192;39.766;2.716;2024-02-14T00:12:36;102172.76;;;10.53;67.09
85752;BME280;76192;39.766;2.716;2024-02-14T00:15:06;102171.41;;;10.53;66.82
85752;BME280;76192;39.766;2.716;2024-02-14T00:17:33;102171.52;;;10.52;67.02
85752;BME280;76192;39.766;2.716;2024-02-14T00:20:03;102165.36;;;10.52;67.02
85752;BME280;76192;39.766;2.716;2024-02-14T00:22:29;102164.08;;;10.50;67.10
85752;BME280;76192;39.766;2.716;2024-02-14T00:24:55;102165.37;;;10.49;67.09
85752;BME280;76192;39.766;2.716;2024-02-14T00:27:20;102165.80;;;10.48;66.84
85752;BME280;76192;39.766;2.716;2024-02-14T00:29:46;102167.05;;;10.46;66.96
85752;BME280;76192;39.766;2.716;2024-02-14T00:32:13;102170.47;;;10.44;67.03
85752;BME280;76192;39.766;2.716;2024-02-14T00:34:38;102167.25;;;10.42;67.13
85752;BME280;76192;39.766;2.716;2024-02-14T00:37:04;102166.42;;;10.39;67.18
85752;BME280;76192;39.766;2.716;2024-02-14T00:39:29;102165.88;;;10.36;67.35
85752;BME280;76192;39.766;2.716;2024-02-14T00:41:55;102165.05;;;10.34;67.56
85752;BME280;76192;39.766;2.716;2024-02-14T00:44:22;102165.48;;;10.30;67.52
85752;BME280;76192;39.766;2.716;2024-02-14T00:46:48;102165.29;;;10.27;67.53
85752;BME280;76192;39.766;2.716;2024-02-14T00:49:14;102163.61;;;10.25;67.63
85752;BME280;76192;39.766;2.716;2024-02-14T00:51:40;102163.68;;;10.24;67.66
85752;BME280;76192;39.766;2.716;2024-02-14T00:54:06;102158.61;;;10.22;67.67
85752;BME280;76192;39.766;2.716;2024-02-14T00:56:32;102154.79;;;10.21;67.89
85752;BME280;76192;39.766;2.716;2024-02-14T00:58:58;102155.31;;;10.18;67.93
85752;BME280;76192;39.766;2.716;2024-02-14T01:01:23;102157.85;;;10.18;68.07
85752;BME280;76192;39.766;2.716;2024-02-14T01:03:49;102157.64;;;10.17;68.21
85752;BME280;76192;39.766;2.716;2024-02-14T01:06:15;102157.98;;;10.15;68.20
85752;BME280;76192;39.766;2.716;2024-02-14T01:08:44;102160.19;;;10.17;68.21
85752;BME280;76192;39.766;2.716;2024-02-14T01:11:10;102158.77;;;10.19;68.08
85752;BME280;76192;39.766;2.716;2024-02-14T01:13:36;102158.84;;;10.23;68.31
85752;BME280;76192;39.766;2.716;2024-02-14T01:16:05;102162.41;;;10.27;68.12
85752;BME280;76192;39.766;2.716;2024-02-14T01:18:31;102161.23;;;10.33;68.09
85752;BME280;76192;39.766;2.716;2024-02-14T01:20:59;102157.73;;;10.37;68.10
85752;BME280;76192;39.766;2.716;2024-02-14T01:23:26;102156.12;;;10.41;67.99
85752;BME280;76192;39.766;2.716;2024-02-14T01:25:51;102155.60;;;10.44;67.88
85752;BME280;76192;39.766;2.716;2024-02-14T01:28:20;102156.84;;;10.44;67.77
85752;BME280;76192;39.766;2.716;2024-02-14T01:30:45;102155.25;;;10.43;67.86
85752;BME280;76192;39.766;2.716;2024-02-14T01:33:11;102154.73;;;10.43;67.84
85752;BME280;76192;39.766;2.716;2024-02-14T01:35:36;102155.39;;;10.43;67.68
85752;BME280;76192;39.766;2.716;2024-02-14T01:38:02;102158.27;;;10.42;67.69
85752;BME280;76192;39.766;2.716;2024-02-14T01:40:31;102160.35;;;10.40;67.74
85752;BME280;76192;39.766;2.716;2024-02-14T01:42:57;102160.63;;;10.39;67.48
85752;BME280;76192;39.766;2.716;2024-02-14T01:45:22;102160.66;;;10.37;67.59
85752;BME280;76192;39.766;2.716;2024-02-14T01:47:49;102163.61;;;10.36;67.73
85752;BME280;76192;39.766;2.716;2024-02-14T01:50:16;102161.59;;;10.33;67.86
85752;BME280;76192;39.766;2.716;2024-02-14T01:52:44;102157.82;;;10.31;68.16
85752;BME280;76192;39.766;2.716;2024-02-14T01:55:12;102155.40;;;10.27;68.05
85752;BME280;76192;39.766;2.716;2024-02-14T01:57:39;102155.00;;;10.24;67.99
85752;BME280;76192;39.766;2.716;2024-02-14T02:00:06;102156.88;;;10.21;68.03
85752;BME280;76192;39.766;2.716;2024-02-14T02:02:35;102154.91;;;10.17;68.15
85752;BME280;76192;39.766;2.716;2024-02-14T02:05:05;102154.71;;;10.15;68.32
85752;BME280;76192;39.766;2.716;2024-02-14T02:07:32;102156.38;;;10.11;68.17
85752;BME280;76192;39.766;2.716;2024-02-14T02:09:57;102157.83;;;10.08;68.30
85752;BME280;76192;39.766;2.716;2024-02-14T02:12:23;102157.61;;;10.04;68.43
85752;BME280;76192;39.766;2.716;2024-02-14T02:14:50;102156.55;;;10.01;68.40
85752;BME280;76192;39.766;2.716;2024-02-14T02:17:17;102152.52;;;9.99;68.38
85752;BME280;76192;39.766;2.716;2024-02-14T02:19:43;102147.79;;;10.00;68.40
85752;BME280;76192;39.766;2.716;2024-02-14T02:22:09;102145.86;;;10.02;68.51
85752;BME280;76192;39.766;2.716;2024-02-14T02:24:35;102134.23;;;10.04;68.41
85752;BME280;76192;39.766;2.716;2024-02-14T02:27:01;102132.79;;;10.10;68.56
85752;BME280;76192;39.766;2.716;2024-02-14T02:29:27;102130.06;;;10.18;68.55
85752;BME280;76192;39.766;2.716;2024-02-14T02:31:53;102128.71;;;10.25;68.35
85752;BME280;76192;39.766;2.716;2024-02-14T02:34:18;102125.10;;;10.33;68.28
85752;BME280;76192;39.766;2.716;2024-02-14T02:36:44;102122.09;;;10.39;68.28
85752;BME280;76192;39.766;2.716;2024-02-14T02:39:13;102118.94;;;10.43;68.17
85752;BME280;76192;39.766;2.716;2024-02-14T02:41:39;102115.17;;;10.45;67.97
85752;BME280;76192;39.766;2.716;2024-02-14T02:44:05;102114.70;;;10.46;67.83
85752;BME280;76192;39.766;2.716;2024-02-14T02:46:32;102109.69;;;10.45;67.85
85752;BME280;76192;39.766;2.716;2024-02-14T02:48:58;102107.48;;;10.43;68.07
85752;BME280;76192;39.766;2.716;2024-02-14T02:51:24;102103.91;;;10.40;68.20
85752;BME280;76192;39.766;2.716;2024-02-14T02:53:50;102100.64;;;10.37;67.99
85752;BME280;76192;39.766;2.716;2024-02-14T02:56:17;102101.77;;;10.34;67.93
85752;BME280;76192;39.766;2.716;2024-02-14T02:58:44;102100.83;;;10.29;67.86
85752;BME280;76192;39.766;2.716;2024-02-14T03:01:10;102094.36;;;10.26;67.69
85752;BME280;76192;39.766;2.716;2024-02-14T03:03:37;102096.39;;;10.24;67.98
85752;BME280;76192;39.766;2.716;2024-02-14T03:06:04;102099.59;;;10.21;67.88
85752;BME280;76192;39.766;2.716;2024-02-14T03:08:31;102097.66;;;10.17;68.10
85752;BME280;76192;39.766;2.716;2024-02-14T03:11:06;102099.54;;;10.15;67.93
85752;BME280;76192;39.766;2.716;2024-02-14T03:13:32;102100.21;;;10.12;68.10
85752;BME280;76192;39.766;2.716;2024-02-14T03:15:58;102099.02;;;10.10;68.18
85752;BME280;76192;39.766;2.716;2024-02-14T03:18:24;102102.54;;;10.06;68.41
85752;BME280;76192;39.766;2.716;2024-02-14T03:20:50;102104.09;;;10.04;68.50
85752;BME280;76192;39.766;2.716;2024-02-14T03:23:16;102104.08;;;10.01;68.67
85752;BME280;76192;39.766;2.716;2024-02-14T03:25:41;102102.77;;;9.99;68.81
85752;BME280;76192;39.766;2.716;2024-02-14T03:28:08;102106.20;;;9.99;69.13
85752;BME280;76192;39.766;2.716;2024-02-14T03:30:37;102103.50;;;10.00;69.12
85752;BME280;76192;39.766;2.716;2024-02-14T03:33:06;102105.50;;;10.02;68.94
85752;BME280;76192;39.766;2.716;2024-02-14T03:35:33;102101.06;;;10.04;69.12
85752;BME280;76192;39.766;2.716;2024-02-14T03:38:01;102100.48;;;10.09;69.20
85752;BME280;76192;39.766;2.716;2024-02-14T03:40:27;102102.61;;;10.13;69.25
85752;BME280;76192;39.766;2.716;2024-02-14T03:42:58;102101.36;;;10.17;69.21
85752;BME280;76192;39.766;2.716;2024-02-14T03:45:24;102102.90;;;10.19;69.25
85752;BME280;76192;39.766;2.716;2024-02-14T03:47:49;102105.71;;;10.21;69.19
85752;BME280;76192;39.766;2.716;2024-02-14T03:50:15;102107.01;;;10.20;69.27
85752;BME280;76192;39.766;2.716;2024-02-14T03:52:41;102101.75;;;10.18;69.24
85752;BME280;76192;39.766;2.716;2024-02-14T03:55:08;102103.16;;;10.16;69.13
85752;BME280;76192;39.766;2.716;2024-02-14T03:57:34;102105.59;;;10.14;69.09
85752;BME280;76192;39.766;2.716;2024-02-14T04:00:04;102107.05;;;10.10;68.97
85752;BME280;76192;39.766;2.716;2024-02-14T04:02:33;102114.28;;;10.06;68.82
85752;BME280;76192;39.766;2.716;2024-02-14T04:04:58;102117.79;;;10.02;68.77
85752;BME280;76192;39.766;2.716;2024-02-14T04:07:24;102119.64;;;9.99;68.73
85752;BME280;76192;39.766;2.716;2024-02-14T04:09:51;102120.45;;;9.96;68.83
85752;BME280;76192;39.766;2.716;2024-02-14T04:12:16;102128.61;;;9.93;68.83
85752;BME280;76192;39.766;2.716;2024-02-14T04:14:42;102130.05;;;9.92;69.01
85752;BME280;76192;39.766;2.716;2024-02-14T04:17:08;102134.27;;;9.89;69.29
85752;BME280;76192;39.766;2.716;2024-02-14T04:19:34;102134.41;;;9.86;69.27
85752;BME280;76192;39.766;2.716;2024-02-14T04:21:59;102134.73;;;9.83;69.41
85752;BME280;76192;39.766;2.716;2024-02-14T04:24:25;102137.41;;;9.80;69.53
85752;BME280;76192;39.766;2.716;2024-02-14T04:26:53;102140.49;;;9.77;69.79
85752;BME280;76192;39.766;2.716;2024-02-14T04:29:20;102146.98;;;9.75;69.86
85752;BME280;76192;39.766;2.716;2024-02-14T04:31:46;102146.28;;;9.72;70.01
85752;BME280;76192;39.766;2.716;2024-02-14T04:34:12;102140.61;;;9.72;70.11
85752;BME280;76192;39.766;2.716;2024-02-14T04:36:39;102147.02;;;9.73;70.21
85752;BME280;76192;39.766;2.716;2024-02-14T04:39:05;102157.16;;;9.77;70.19
85752;BME280;76192;39.766;2.716;2024-02-14T04:41:31;102163.05;;;9.81;70.35
85752;BME280;76192;39.766;2.716;2024-02-14T04:43:56;102161.52;;;9.86;70.36
85752;BME280;76192;39.766;2.716;2024-02-14T04:46:22;102150.02;;;9.93;70.26
85752;BME280;76192;39.766;2.716;2024-02-14T04:48:48;102138.58;;;9.97;70.10
85752;BME280;76192;39.766;2.716;2024-02-14T04:51:13;102137.29;;;10.01;70.00
85752;BME280;76192;39.766;2.716;2024-02-14T04:53:39;102141.04;;;10.03;69.84
85752;BME280;76192;39.766;2.716;2024-02-14T04:56:04;102148.42;;;10.04;69.77
85752;BME280;76192;39.766;2.716;2024-02-14T04:58:30;102149.60;;;10.04;69.41
85752;BME280;76192;39.766;2.716;2024-02-14T05:00:56;102147.92;;;10.02;69.40
85752;BME280;76192;39.766;2.716;2024-02-14T05:03:21;102153.05;;;10.00;69.59
85752;BME280;76192;39.766;2.716;2024-02-14T05:05:49;102157.78;;;9.97;69.48
85752;BME280;76192;39.766;2.716;2024-02-14T05:08:16;102157.08;;;9.94;69.62
85752;BME280;76192;39.766;2.716;2024-02-14T05:10:41;102154.29;;;9.90;69.62
85752;BME280;76192;39.766;2.716;2024-02-14T05:13:07;102155.20;;;9.86;69.44
85752;BME280;76192;39.766;2.716;2024-02-14T05:15:32;102162.44;;;9.82;69.48
85752;BME280;76192;39.766;2.716;2024-02-14T05:18:01;102164.11;;;9.76;69.40
85752;BME280;76192;39.766;2.716;2024-02-14T05:20:27;102159.55;;;9.72;69.60
85752;BME280;76192;39.766;2.716;2024-02-14T05:22:53;102162.23;;;9.69;69.56
85752;BME280;76192;39.766;2.716;2024-02-14T05:25:19;102157.06;;;9.66;69.75
85752;BME280;76192;39.766;2.716;2024-02-14T05:27:44;102156.20;;;9.63;70.05
85752;BME280;76192;39.766;2.716;2024-02-14T05:30:12;102156.61;;;9.61;70.21
85752;BME280;76192;39.766;2.716;2024-02-14T05:32:38;102160.56;;;9.59;70.41
85752;BME280;76192;39.766;2.716;2024-02-14T05:35:05;102165.80;;;9.61;70.44
85752;BME280;76192;39.766;2.716;2024-02-14T05:37:31;102160.29;;;9.63;70.45
85752;BME280;76192;39.766;2.716;2024-02-14T05:39:57;102159.55;;;9.65;70.32
85752;BME280;76192;39.766;2.716;2024-02-14T05:42:23;102155.46;;;9.67;70.56
85752;BME280;76192;39.766;2.716;2024-02-14T05:44:49;102157.01;;;9.72;70.61
85752;BME280;76192;39.766;2.716;2024-02-14T05:47:15;102155.61;;;9.76;70.63
85752;BME280;76192;39.766;2.716;2024-02-14T05:49:40;102160.41;;;9.79;70.51
85752;BME280;76192;39.766;2.716;2024-02-14T05:52:07;102163.75;;;9.81;70.24
85752;BME280;76192;39.766;2.716;2024-02-14T05:54:33;102166.08;;;9.83;69.92
85752;BME280;76192;39.766;2.716;2024-02-14T05:57:00;102160.63;;;9.83;69.69
85752;BME280;76192;39.766;2.716;2024-02-14T05:59:27;102164.20;;;9.83;69.65
85752;BME280;76192;39.766;2.716;2024-02-14T06:01:53;102161.70;;;9.81;69.66
85752;BME280;76192;39.766;2.716;2024-02-14T06:04:18;102164.79;;;9.79;69.67
85752;BME280;76192;39.766;2.716;2024-02-14T06:06:44;102162.21;;;9.77;69.70
85752;BME280;76192;39.766;2.716;2024-02-14T06:09:09;102159.33;;;9.74;69.69
85752;BME280;76192;39.766;2.716;2024-02-14T06:11:37;102161.52;;;9.71;69.62
85752;BME280;76192;39.766;2.716;2024-02-14T06:14:07;102159.41;;;9.68;69.81
85752;BME280;76192;39.766;2.716;2024-02-14T06:16:33;102163.73;;;9.64;69.70
85752;BME280;76192;39.766;2.716;2024-02-14T06:18:59;102165.33;;;9.59;69.91
85752;BME280;76192;39.766;2.716;2024-02-14T06:21:25;102174.15;;;9.56;70.13
85752;BME280;76192;39.766;2.716;2024-02-14T06:23:51;102176.77;;;9.53;70.22
85752;BME280;76192;39.766;2.716;2024-02-14T06:26:17;102175.40;;;9.50;70.40
85752;BME280;76192;39.766;2.716;2024-02-14T06:28:44;102174.45;;;9.46;70.53
85752;BME280;76192;39.766;2.716;2024-02-14T06:31:09;102171.45;;;9.42;70.51
85752;BME280;76192;39.766;2.716;2024-02-14T06:33:35;102175.41;;;9.41;70.62
85752;BME280;76192;39.766;2.716;2024-02-14T06:36:01;102176.30;;;9.41;70.52
85752;BME280;76192;39.766;2.716;2024-02-14T06:38:27;102170.14;;;9.43;70.62
85752;BME280;76192;39.766;2.716;2024-02-14T06:40:52;102170.75;;;9.47;70.42
85752;BME280;76192;39.766;2.716;2024-02-14T06:43:18;102175.25;;;9.53;70.49
85752;BME280;76192;39.766;2.716;2024-02-14T06:45:44;102179.04;;;9.61;70.65
85752;BME280;76192;39.766;2.716;2024-02-14T06:48:10;102175.52;;;9.67;70.43
85752;BME280;76192;39.766;2.716;2024-02-14T06:50:36;102174.90;;;9.73;70.26
85752;BME280;76192;39.766;2.716;2024-02-14T06:53:01;102179.83;;;9.77;70.16
85752;BME280;76192;39.766;2.716;2024-02-14T06:55:27;102181.98;;;9.81;70.07
85752;BME280;76192;39.766;2.716;2024-02-14T06:57:54;102183.11;;;9.83;69.98
85752;BME280;76192;39.766;2.716;2024-02-14T07:00:20;102182.91;;;9.85;69.87
85752;BME280;76192;39.766;2.716;2024-02-14T07:02:45;102185.36;;;9.86;69.78
85752;BME280;76192;39.766;2.716;2024-02-14T07:05:13;102189.67;;;9.87;69.83
85752;BME280;76192;39.766;2.716;2024-02-14T07:07:40;102195.70;;;9.88;69.89
85752;BME280;76192;39.766;2.716;2024-02-14T07:10:07;102195.30;;;9.87;69.95
85752;BME280;76192;39.766;2.716;2024-02-14T07:12:33;102203.15;;;9.87;70.00
85752;BME280;76192;39.766;2.716;2024-02-14T07:14:58;102203.86;;;9.88;69.76
85752;BME280;76192;39.766;2.716;2024-02-14T07:17:24;102204.59;;;9.88;69.90
85752;BME280;76192;39.766;2.716;2024-02-14T07:19:50;102204.77;;;9.89;69.94
85752;BME280;76192;39.766;2.716;2024-02-14T07:22:16;102205.29;;;9.89;69.71
85752;BME280;76192;39.766;2.716;2024-02-14T07:24:44;102209.61;;;9.90;69.61
85752;BME280;76192;39.766;2.716;2024-02-14T07:27:13;102215.34;;;9.91;69.96
85752;BME280;76192;39.766;2.716;2024-02-14T07:29:39;102218.89;;;9.93;69.93
85752;BME280;76192;39.766;2.716;2024-02-14T07:32:05;102220.98;;;9.94;70.04
85752;BME280;76192;39.766;2.716;2024-02-14T07:34:32;102220.29;;;9.94;70.04
85752;BME280;76192;39.766;2.716;2024-02-14T07:36:57;102225.80;;;9.97;70.03
85752;BME280;76192;39.766;2.716;2024-02-14T07:39:23;102229.66;;;10.02;69.77
85752;BME280;76192;39.766;2.716;2024-02-14T07:41:49;102230.88;;;10.07;69.58
85752;BME280;76192;39.766;2.716;2024-02-14T07:44:14;102231.35;;;10.14;69.63
85752;BME280;76192;39.766;2.716;2024-02-14T07:46:40;102230.14;;;10.21;69.58
85752;BME280;76192;39.766;2.716;2024-02-14T07:49:06;102234.29;;;10.29;69.57
85752;BME280;76192;39.766;2.716;2024-02-14T07:51:32;102238.54;;;10.37;69.53
85752;BME280;76192;39.766;2.716;2024-02-14T07:54:05;102240.48;;;10.43;69.37
85752;BME280;76192;39.766;2.716;2024-02-14T07:56:31;102241.89;;;10.49;69.29
85752;BME280;76192;39.766;2.716;2024-02-14T07:58:58;102244.73;;;10.53;69.46
85752;BME280;76192;39.766;2.716;2024-02-14T08:01:24;102245.02;;;10.57;69.08
85752;BME280;76192;39.766;2.716;2024-02-14T08:03:50;102240.79;;;10.61;69.01
85752;BME280;76192;39.766;2.716;2024-02-14T08:06:16;102243.88;;;10.63;68.99
85752;BME280;76192;39.766;2.716;2024-02-14T08:08:42;102246.71;;;10.65;69.16
85752;BME280;76192;39.766;2.716;2024-02-14T08:11:09;102245.89;;;10.65;69.17
85752;BME280;76192;39.766;2.716;2024-02-14T08:13:35;102241.34;;;10.66;69.15
85752;BME280;76192;39.766;2.716;2024-02-14T08:16:03;102241.98;;;10.66;68.82
85752;BME280;76192;39.766;2.716;2024-02-14T08:18:29;102247.20;;;10.70;69.14
85752;BME280;76192;39.766;2.716;2024-02-14T08:20:54;102245.09;;;10.71;69.17
85752;BME280;76192;39.766;2.716;2024-02-14T08:23:20;102247.15;;;10.74;69.03
85752;BME280;76192;39.766;2.716;2024-02-14T08:25:46;102251.21;;;10.77;69.13
85752;BME280;76192;39.766;2.716;2024-02-14T08:28:12;102243.19;;;10.77;69.03
85752;BME280;76192;39.766;2.716;2024-02-14T08:30:38;102253.06;;;10.84;68.86
85752;BME280;76192;39.766;2.716;2024-02-14T08:33:04;102252.61;;;10.88;68.71
85752;BME280;76192;39.766;2.716;2024-02-14T08:35:29;102251.79;;;10.91;68.58
85752;BME280;76192;39.766;2.716;2024-02-14T08:37:55;102252.20;;;10.97;68.64
85752;BME280;76192;39.766;2.716;2024-02-14T08:40:21;102254.55;;;11.05;68.54
85752;BME280;76192;39.766;2.716;2024-02-14T08:42:46;102254.00;;;11.15;68.08
85752;BME280;76192;39.766;2.716;2024-02-14T08:45:12;102256.88;;;11.28;68.05
85752;BME280;76192;39.766;2.716;2024-02-14T08:47:38;102253.98;;;11.42;67.67
85752;BME280;76192;39.766;2.716;2024-02-14T08:50:04;102257.46;;;11.56;67.62
85752;BME280;76192;39.766;2.716;2024-02-14T08:52:30;102256.64;;;11.71;67.40
85752;BME280;76192;39.766;2.716;2024-02-14T08:54:55;102251.39;;;11.83;67.26
85752;BME280;76192;39.766;2.716;2024-02-14T08:57:21;102255.55;;;11.97;67.14
85752;BME280;76192;39.766;2.716;2024-02-14T08:59:48;102254.19;;;12.09;66.86
85752;BME280;76192;39.766;2.716;2024-02-14T09:02:14;102255.65;;;12.22;66.79
85752;BME280;76192;39.766;2.716;2024-02-14T09:04:41;102250.65;;;12.33;66.65
85752;BME280;76192;39.766;2.716;2024-02-14T09:07:07;102256.94;;;12.41;66.75
85752;BME280;76192;39.766;2.716;2024-02-14T09:09:33;102257.77;;;12.49;66.47
85752;BME280;76192;39.766;2.716;2024-02-14T09:11:59;102245.46;;;12.52;66.63
85752;BME280;76192;39.766;2.716;2024-02-14T09:14:30;102253.25;;;12.66;66.45
85752;BME280;76192;39.766;2.716;2024-02-14T09:16:56;102251.48;;;12.74;67.16
85752;BME280;76192;39.766;2.716;2024-02-14T09:19:23;102254.23;;;12.83;67.58
85752;BME280;76192;39.766;2.716;2024-02-14T09:21:50;102256.96;;;12.92;67.44
85752;BME280;76192;39.766;2.716;2024-02-14T09:24:16;102256.30;;;13.02;67.40
85752;BME280;76192;39.766;2.716;2024-02-14T09:26:42;102252.39;;;13.12;67.50
85752;BME280;76192;39.766;2.716;2024-02-14T09:29:08;102253.17;;;13.22;67.28
85752;BME280;76192;39.766;2.716;2024-02-14T09:31:36;102247.20;;;13.32;67.25
85752;BME280;76192;39.766;2.716;2024-02-14T09:34:02;102247.87;;;13.41;67.02
85752;BME280;76192;39.766;2.716;2024-02-14T09:36:28;102247.73;;;13.51;66.42
85752;BME280;76192;39.766;2.716;2024-02-14T09:38:54;102253.65;;;13.62;66.18
85752;BME280;76192;39.766;2.716;2024-02-14T09:41:37;102255.75;;;13.76;65.74
85752;BME280;76192;39.766;2.716;2024-02-14T09:44:03;102260.08;;;13.93;65.67
85752;BME280;76192;39.766;2.716;2024-02-14T09:46:29;102258.34;;;14.10;65.26
85752;BME280;76192;39.766;2.716;2024-02-14T09:48:58;102255.96;;;14.27;64.53
85752;BME280;76192;39.766;2.716;2024-02-14T09:51:28;102253.75;;;14.44;64.00
85752;BME280;76192;39.766;2.716;2024-02-14T09:53:54;102253.54;;;14.63;63.47
85752;BME280;76192;39.766;2.716;2024-02-14T09:56:21;102258.67;;;14.81;62.95
85752;BME280;76192;39.766;2.716;2024-02-14T09:58:50;102260.34;;;14.98;62.33
85752;BME280;76192;39.766;2.716;2024-02-14T10:01:24;102257.19;;;15.14;61.65
85752;BME280;76192;39.766;2.716;2024-02-14T10:03:51;102255.59;;;15.28;61.11
85752;BME280;76192;39.766;2.716;2024-02-14T10:06:18;102262.99;;;15.39;60.45
85752;BME280;76192;39.766;2.716;2024-02-14T10:08:50;102264.36;;;15.50;60.10
85752;BME280;76192;39.766;2.716;2024-02-14T10:11:17;102265.47;;;15.60;59.67
85752;BME280;76192;39.766;2.716;2024-02-14T10:13:47;102262.64;;;15.69;59.33
85752;BME280;76192;39.766;2.716;2024-02-14T10:16:16;102264.24;;;15.77;59.02
85752;BME280;76192;39.766;2.716;2024-02-14T10:18:45;102261.51;;;15.86;58.75
85752;BME280;76192;39.766;2.716;2024-02-14T10:21:15;102262.36;;;15.93;58.75
85752;BME280;76192;39.766;2.716;2024-02-14T10:23:43;102264.06;;;16.01;58.55
85752;BME280;76192;39.766;2.716;2024-02-14T10:26:09;102265.43;;;16.08;58.18
85752;BME280;76192;39.766;2.716;2024-02-14T10:28:35;102263.55;;;16.16;57.97
85752;BME280;76192;39.766;2.716;2024-02-14T10:31:01;102263.73;;;16.25;57.77
85752;BME280;76192;39.766;2.716;2024-02-14T10:33:30;102266.83;;;16.33;57.21
85752;BME280;76192;39.766;2.716;2024-02-14T10:35:57;102271.64;;;16.41;56.57
85752;BME280;76192;39.766;2.716;2024-02-14T10:38:24;102266.79;;;16.48;56.17
85752;BME280;76192;39.766;2.716;2024-02-14T10:40:51;102269.48;;;16.55;56.02
85752;BME280;76192;39.766;2.716;2024-02-14T10:43:17;102270.77;;;16.61;56.05
85752;BME280;76192;39.766;2.716;2024-02-14T10:45:44;102272.90;;;16.67;55.65
85752;BME280;76192;39.766;2.716;2024-02-14T10:48:14;102267.09;;;16.73;55.44
85752;BME280;76192;39.766;2.716;2024-02-14T10:50:43;102268.63;;;16.80;54.90
85752;BME280;76192;39.766;2.716;2024-02-14T10:53:16;102268.23;;;16.87;54.67
85752;BME280;76192;39.766;2.716;2024-02-14T10:55:46;102261.19;;;16.96;54.45
85752;BME280;76192;39.766;2.716;2024-02-14T10:58:14;102259.61;;;17.04;54.18
85752;BME280;76192;39.766;2.716;2024-02-14T11:00:42;102254.63;;;17.13;53.63
85752;BME280;76192;39.766;2.716;2024-02-14T11:03:09;102247.27;;;17.23;53.23
85752;BME280;76192;39.766;2.716;2024-02-14T11:05:46;102248.86;;;17.34;52.80
85752;BME280;76192;39.766;2.716;2024-02-14T11:08:21;102243.20;;;17.44;52.05
85752;BME280;76192;39.766;2.716;2024-02-14T11:10:55;102236.35;;;17.54;51.39
85752;BME280;76192;39.766;2.716;2024-02-14T11:13:28;102234.27;;;17.68;51.40
85752;BME280;76192;39.766;2.716;2024-02-14T11:15:57;102226.90;;;17.78;50.82
85752;BME280;76192;39.766;2.716;2024-02-14T11:18:27;102226.55;;;17.92;50.13
85752;BME280;76192;39.766;2.716;2024-02-14T11:20:55;102225.39;;;18.03;49.55
85752;BME280;76192;39.766;2.716;2024-02-14T11:23:23;102222.16;;;18.15;48.80
85752;BME280;76192;39.766;2.716;2024-02-14T11:25:49;102214.59;;;18.26;48.77
85752;BME280;76192;39.766;2.716;2024-02-14T11:28:17;102216.14;;;18.36;49.11
85752;BME280;76192;39.766;2.716;2024-02-14T11:30:45;102218.48;;;18.44;49.01
85752;BME280;76192;39.766;2.716;2024-02-14T11:33:22;102215.59;;;18.52;49.19
85752;BME280;76192;39.766;2.716;2024-02-14T11:35:52;102209.58;;;18.57;49.14
85752;BME280;76192;39.766;2.716;2024-02-14T11:38:21;102209.78;;;18.64;48.66
85752;BME280;76192;39.766;2.716;2024-02-14T11:40:47;102206.52;;;18.70;48.45
85752;BME280;76192;39.766;2.716;2024-02-14T11:43:34;102206.86;;;18.75;48.45
85752;BME280;76192;39.766;2.716;2024-02-14T11:46:00;102205.66;;;18.80;47.73
85752;BME280;76192;39.766;2.716;2024-02-14T11:48:26;102205.73;;;18.87;47.54
85752;BME280;76192;39.766;2.716;2024-02-14T11:50:52;102199.61;;;18.97;47.09
85752;BME280;76192;39.766;2.716;2024-02-14T11:53:19;102196.13;;;19.07;46.91
85752;BME280;76192;39.766;2.716;2024-02-14T11:55:46;102187.52;;;19.20;46.82
85752;BME280;76192;39.766;2.716;2024-02-14T11:58:17;102175.23;;;19.32;46.47
85752;BME280;76192;39.766;2.716;2024-02-14T12:00:45;102167.41;;;19.43;46.30
85752;BME280;76192;39.766;2.716;2024-02-14T12:03:19;102168.10;;;19.55;45.34
85752;BME280;76192;39.766;2.716;2024-02-14T12:05:47;102168.81;;;19.68;45.27
85752;BME280;76192;39.766;2.716;2024-02-14T12:08:13;102163.29;;;19.81;44.97
85752;BME280;76192;39.766;2.716;2024-02-14T12:10:42;102160.19;;;19.95;44.42
85752;BME280;76192;39.766;2.716;2024-02-14T12:13:10;102157.89;;;20.07;44.24
85752;BME280;76192;39.766;2.716;2024-02-14T12:15:47;102153.67;;;20.17;43.84
85752;BME280;76192;39.766;2.716;2024-02-14T12:18:14;102152.08;;;20.31;43.68
85752;BME280;76192;39.766;2.716;2024-02-14T12:20:40;102150.44;;;20.42;43.21
85752;BME280;76192;39.766;2.716;2024-02-14T12:23:06;102147.24;;;20.52;42.99
85752;BME280;76192;39.766;2.716;2024-02-14T12:25:33;102142.45;;;20.63;42.74
85752;BME280;76192;39.766;2.716;2024-02-14T12:28:00;102141.38;;;20.75;42.68
85752;BME280;76192;39.766;2.716;2024-02-14T12:30:46;102138.37;;;20.89;42.49
85752;BME280;76192;39.766;2.716;2024-02-14T12:33:14;102132.86;;;21.08;41.97
85752;BME280;76192;39.766;2.716;2024-02-14T12:35:47;102129.69;;;21.22;41.64
85752;BME280;76192;39.766;2.716;2024-02-14T12:38:16;102130.48;;;21.35;41.23
85752;BME280;76192;39.766;2.716;2024-02-14T12:40:42;102128.29;;;21.47;41.16
85752;BME280;76192;39.766;2.716;2024-02-14T12:43:10;102125.36;;;21.56;41.33
85752;BME280;76192;39.766;2.716;2024-02-14T12:45:36;102122.89;;;21.65;41.09
85752;BME280;76192;39.766;2.716;2024-02-14T12:48:03;102122.52;;;21.73;40.76
85752;BME280;76192;39.766;2.716;2024-02-14T12:50:30;102118.79;;;21.78;40.59